Zanjan, Iran

7:11 PM IRST on February 11, 2016 (GMT +0330)
Zanjan | | Change Station
CLOSE
Current Station
Airport
Location: Zanjan,
Elevation: 5381 ft
Nearby Weather Stations

Elev 5381 ft 36.77 °N, 48.36 °E | Updated 41 minutes ago

Clear
Clear
28 °F
Feels Like 20 °F
N
9
Wind Variable Wind from West

Today
High -- | Low -- °F
--% Chance of Precip.
Yesterday
High -- | Low -- °F
Precip. -- in
Pressure 30.04 in
Visibility -9999.0 miles
Clouds
Windchill 20 °F
Dew Point 16 °F
Humidity 59%
Rainfall 0.00 in
Snow Depth Not available.
7:09 AM 5:51 PM
Waxing Crescent, 12% visible
METAR OITZ 111500Z 26008KT CAVOK M02/M09 Q1017
Pressure 30.04 in
Visibility -9999.0 miles
Clouds
Windchill 20 °F
Dew Point 16 °F
Humidity 59%
Rainfall 0.00 in
Snow Depth Not available.
7:09 AM 5:51 PM
Waxing Crescent, 12% visible
METAR OITZ 111500Z 26008KT CAVOK M02/M09 Q1017

10-Day Weather Forecast

No radar image for this location.
×

Almanac

Astronomy

Feb. 11, 2016 Rise Set
Actual Time
Civil Twilight
Nautical Twilight
Astronomical Twilight
Moon
Length of Visible Light
Length of Day
Tomorrow will be .
, % of the Moon is Illuminated

Today's Extremes

Country Highs Country Lows

Community

WunderPhotos

Upload Photos

1,892,081 photos uploaded!

WunderBlog® & News

Nearby

Air Quality

  Air Quality AQ Index Pollutant
Not available.

Snow Depth

Station Depth Elevation

Earthquake Activity

City Distance Mag. Time & Date
Minimum magnitude displayed is 2.5.

Coastal Water Temperatures

Place Temperature

Stations

Nearby Weather Stations

Station Location Temp. Windchill Dew Point Humidity Wind Precip. Elev Updated Type